sensor_id;sensor_type;location;lat;lon;timestamp;P1;durP1;ratioP1;P2;durP2;ratioP2
75071;SDS011;63651;55.728;38.022;2022-10-31T00:00:01;5.03;;;4.13;;
75071;SDS011;63651;55.728;38.022;2022-10-31T00:05:02;6.38;;;5.78;;
75071;SDS011;63651;55.728;38.022;2022-10-31T00:10:02;6.05;;;5.13;;
75071;SDS011;63651;55.728;38.022;2022-10-31T00:15:03;5.20;;;4.35;;
75071;SDS011;63651;55.728;38.022;2022-10-31T00:20:04;8.20;;;6.90;;
75071;SDS011;63651;55.728;38.022;2022-10-31T00:25:05;4.45;;;3.53;;
75071;SDS011;63651;55.728;38.022;2022-10-31T00:30:06;5.85;;;4.85;;
75071;SDS011;63651;55.728;38.022;2022-10-31T00:35:07;5.25;;;4.75;;
75071;SDS011;63651;55.728;38.022;2022-10-31T00:40:08;3.92;;;3.53;;
75071;SDS011;63651;55.728;38.022;2022-10-31T00:45:09;4.20;;;3.80;;
75071;SDS011;63651;55.728;38.022;2022-10-31T00:50:10;7.97;;;7.28;;
75071;SDS011;63651;55.728;38.022;2022-10-31T00:55:10;4.15;;;3.60;;
75071;SDS011;63651;55.728;38.022;2022-10-31T01:00:11;7.32;;;5.90;;
75071;SDS011;63651;55.728;38.022;2022-10-31T01:05:12;6.00;;;4.82;;
75071;SDS011;63651;55.728;38.022;2022-10-31T01:10:13;4.13;;;2.70;;
75071;SDS011;63651;55.728;38.022;2022-10-31T01:15:14;3.38;;;2.65;;
75071;SDS011;63651;55.728;38.022;2022-10-31T01:20:15;4.07;;;3.30;;
75071;SDS011;63651;55.728;38.022;2022-10-31T01:25:16;2.38;;;2.00;;
75071;SDS011;63651;55.728;38.022;2022-10-31T01:30:17;2.60;;;1.80;;
75071;SDS011;63651;55.728;38.022;2022-10-31T01:35:17;5.35;;;3.63;;
75071;SDS011;63651;55.728;38.022;2022-10-31T01:40:18;4.35;;;3.95;;
75071;SDS011;63651;55.728;38.022;2022-10-31T01:45:19;7.38;;;6.00;;
75071;SDS011;63651;55.728;38.022;2022-10-31T01:55:25;6.57;;;4.53;;
75071;SDS011;63651;55.728;38.022;2022-10-31T02:00:27;5.13;;;3.47;;
75071;SDS011;63651;55.728;38.022;2022-10-31T02:05:28;7.93;;;6.03;;
75071;SDS011;63651;55.728;38.022;2022-10-31T02:10:33;6.40;;;5.80;;
75071;SDS011;63651;55.728;38.022;2022-10-31T02:15:34;6.55;;;5.95;;
75071;SDS011;63651;55.728;38.022;2022-10-31T02:45:54;7.07;;;6.47;;
75071;SDS011;63651;55.728;38.022;2022-10-31T02:50:57;11.52;;;10.50;;
75071;SDS011;63651;55.728;38.022;2022-10-31T02:55:59;7.75;;;7.05;;
75071;SDS011;63651;55.728;38.022;2022-10-31T03:06:09;3.67;;;2.90;;
75071;SDS011;63651;55.728;38.022;2022-10-31T03:11:14;7.65;;;6.65;;
75071;SDS011;63651;55.728;38.022;2022-10-31T03:21:53;12.43;;;11.23;;
75071;SDS011;63651;55.728;38.022;2022-10-31T03:26:51;13.98;;;12.57;;
75071;SDS011;63651;55.728;38.022;2022-10-31T03:32:00;13.43;;;12.13;;
75071;SDS011;63651;55.728;38.022;2022-10-31T03:37:03;18.00;;;16.20;;
75071;SDS011;63651;55.728;38.022;2022-10-31T03:42:06;12.50;;;11.27;;
75071;SDS011;63651;55.728;38.022;2022-10-31T03:47:08;10.10;;;9.00;;
75071;SDS011;63651;55.728;38.022;2022-10-31T03:52:12;10.90;;;9.90;;
75071;SDS011;63651;55.728;38.022;2022-10-31T04:02:15;10.40;;;8.25;;
75071;SDS011;63651;55.728;38.022;2022-10-31T04:07:16;5.85;;;4.75;;
75071;SDS011;63651;55.728;38.022;2022-10-31T04:12:18;3.80;;;2.47;;
75071;SDS011;63651;55.728;38.022;2022-10-31T04:17:20;3.30;;;2.15;;
75071;SDS011;63651;55.728;38.022;2022-10-31T04:22:21;2.15;;;1.30;;
75071;SDS011;63651;55.728;38.022;2022-10-31T04:27:22;4.32;;;1.70;;
75071;SDS011;63651;55.728;38.022;2022-10-31T04:32:23;4.10;;;1.35;;
75071;SDS011;63651;55.728;38.022;2022-10-31T04:37:23;1.70;;;1.27;;
75071;SDS011;63651;55.728;38.022;2022-10-31T04:42:24;2.33;;;1.30;;
75071;SDS011;63651;55.728;38.022;2022-10-31T04:47:25;5.03;;;1.60;;
75071;SDS011;63651;55.728;38.022;2022-10-31T04:52:25;2.22;;;1.13;;
75071;SDS011;63651;55.728;38.022;2022-10-31T04:57:26;3.17;;;1.42;;
75071;SDS011;63651;55.728;38.022;2022-10-31T05:02:27;2.42;;;1.35;;
75071;SDS011;63651;55.728;38.022;2022-10-31T05:07:27;2.60;;;1.30;;
75071;SDS011;63651;55.728;38.022;2022-10-31T05:12:28;2.28;;;0.80;;
75071;SDS011;63651;55.728;38.022;2022-10-31T05:17:30;2.38;;;1.23;;
75071;SDS011;63651;55.728;38.022;2022-10-31T05:22:30;3.42;;;1.20;;
75071;SDS011;63651;55.728;38.022;2022-10-31T05:27:31;2.05;;;0.82;;
75071;SDS011;63651;55.728;38.022;2022-10-31T05:32:41;2.55;;;1.23;;
75071;SDS011;63651;55.728;38.022;2022-10-31T05:37:42;3.15;;;1.30;;
75071;SDS011;63651;55.728;38.022;2022-10-31T05:42:43;2.10;;;0.80;;
75071;SDS011;63651;55.728;38.022;2022-10-31T05:47:51;4.32;;;1.10;;
75071;SDS011;63651;55.728;38.022;2022-10-31T05:52:55;2.63;;;0.70;;
75071;SDS011;63651;55.728;38.022;2022-10-31T05:57:56;2.00;;;0.57;;
75071;SDS011;63651;55.728;38.022;2022-10-31T06:03:04;2.92;;;0.77;;
75071;SDS011;63651;55.728;38.022;2022-10-31T06:08:05;1.58;;;0.70;;
75071;SDS011;63651;55.728;38.022;2022-10-31T06:13:05;1.02;;;0.45;;
75071;SDS011;63651;55.728;38.022;2022-10-31T06:18:07;2.50;;;0.50;;
75071;SDS011;63651;55.728;38.022;2022-10-31T06:23:08;2.08;;;0.57;;
75071;SDS011;63651;55.728;38.022;2022-10-31T06:28:09;1.70;;;0.43;;
75071;SDS011;63651;55.728;38.022;2022-10-31T06:33:10;1.73;;;0.45;;
75071;SDS011;63651;55.728;38.022;2022-10-31T06:38:10;1.85;;;0.38;;
75071;SDS011;63651;55.728;38.022;2022-10-31T06:43:11;0.75;;;0.30;;
75071;SDS011;63651;55.728;38.022;2022-10-31T06:48:14;1.13;;;0.30;;
75071;SDS011;63651;55.728;38.022;2022-10-31T06:53:15;1.20;;;0.52;;
75071;SDS011;63651;55.728;38.022;2022-10-31T06:58:15;1.33;;;0.43;;
75071;SDS011;63651;55.728;38.022;2022-10-31T07:03:16;1.50;;;0.60;;
75071;SDS011;63651;55.728;38.022;2022-10-31T07:08:17;1.10;;;0.55;;
75071;SDS011;63651;55.728;38.022;2022-10-31T07:13:18;0.93;;;0.50;;
75071;SDS011;63651;55.728;38.022;2022-10-31T07:18:19;2.67;;;0.60;;
75071;SDS011;63651;55.728;38.022;2022-10-31T07:23:20;2.15;;;0.50;;
75071;SDS011;63651;55.728;38.022;2022-10-31T07:28:20;1.17;;;0.55;;
75071;SDS011;63651;55.728;38.022;2022-10-31T07:33:21;1.50;;;0.50;;
75071;SDS011;63651;55.728;38.022;2022-10-31T07:38:22;2.65;;;0.60;;
75071;SDS011;63651;55.728;38.022;2022-10-31T07:43:23;1.20;;;0.68;;
75071;SDS011;63651;55.728;38.022;2022-10-31T07:48:23;1.38;;;0.60;;
75071;SDS011;63651;55.728;38.022;2022-10-31T07:53:24;1.85;;;1.00;;
75071;SDS011;63651;55.728;38.022;2022-10-31T07:58:25;1.35;;;0.50;;
75071;SDS011;63651;55.728;38.022;2022-10-31T08:03:25;1.50;;;0.43;;
75071;SDS011;63651;55.728;38.022;2022-10-31T08:08:26;1.60;;;0.65;;
75071;SDS011;63651;55.728;38.022;2022-10-31T08:13:28;0.82;;;0.40;;
75071;SDS011;63651;55.728;38.022;2022-10-31T08:18:29;3.72;;;0.50;;
75071;SDS011;63651;55.728;38.022;2022-10-31T08:23:30;0.85;;;0.40;;
75071;SDS011;63651;55.728;38.022;2022-10-31T08:28:30;0.82;;;0.30;;
75071;SDS011;63651;55.728;38.022;2022-10-31T08:33:31;6.00;;;3.30;;
75071;SDS011;63651;55.728;38.022;2022-10-31T08:38:32;3.63;;;2.13;;
75071;SDS011;63651;55.728;38.022;2022-10-31T08:43:32;1.83;;;0.98;;
75071;SDS011;63651;55.728;38.022;2022-10-31T08:48:33;1.38;;;0.70;;
75071;SDS011;63651;55.728;38.022;2022-10-31T08:53:34;1.63;;;0.60;;
75071;SDS011;63651;55.728;38.022;2022-10-31T08:58:34;2.85;;;0.88;;
75071;SDS011;63651;55.728;38.022;2022-10-31T09:03:35;3.22;;;0.90;;
75071;SDS011;63651;55.728;38.022;2022-10-31T09:08:36;2.53;;;0.73;;
75071;SDS011;63651;55.728;38.022;2022-10-31T09:13:37;3.75;;;0.95;;
75071;SDS011;63651;55.728;38.022;2022-10-31T09:18:37;1.33;;;0.52;;
75071;SDS011;63651;55.728;38.022;2022-10-31T09:23:38;1.35;;;0.50;;
75071;SDS011;63651;55.728;38.022;2022-10-31T09:28:39;1.27;;;0.68;;
75071;SDS011;63651;55.728;38.022;2022-10-31T09:33:39;1.48;;;0.50;;
75071;SDS011;63651;55.728;38.022;2022-10-31T09:38:40;1.52;;;0.60;;
75071;SDS011;63651;55.728;38.022;2022-10-31T09:48:56;0.95;;;0.43;;
75071;SDS011;63651;55.728;38.022;2022-10-31T09:59:38;1.95;;;0.70;;
75071;SDS011;63651;55.728;38.022;2022-10-31T10:09:46;1.35;;;0.43;;
75071;SDS011;63651;55.728;38.022;2022-10-31T10:14:53;1.13;;;0.57;;
75071;SDS011;63651;55.728;38.022;2022-10-31T10:40:25;8.13;;;5.05;;
75071;SDS011;63651;55.728;38.022;2022-10-31T10:45:27;5.55;;;3.55;;
75071;SDS011;63651;55.728;38.022;2022-10-31T10:50:47;4.70;;;2.53;;
75071;SDS011;63651;55.728;38.022;2022-10-31T10:55:53;3.05;;;1.77;;
75071;SDS011;63651;55.728;38.022;2022-10-31T11:00:56;2.22;;;1.45;;
75071;SDS011;63651;55.728;38.022;2022-10-31T11:05:57;1.30;;;0.77;;
75071;SDS011;63651;55.728;38.022;2022-10-31T11:11:03;2.40;;;1.02;;
75071;SDS011;63651;55.728;38.022;2022-10-31T11:16:06;0.80;;;0.43;;
75071;SDS011;63651;55.728;38.022;2022-10-31T11:21:17;1.30;;;0.57;;
75071;SDS011;63651;55.728;38.022;2022-10-31T11:26:20;0.82;;;0.40;;
75071;SDS011;63651;55.728;38.022;2022-10-31T11:31:21;0.50;;;0.30;;
75071;SDS011;63651;55.728;38.022;2022-10-31T11:36:25;0.93;;;0.32;;
75071;SDS011;63651;55.728;38.022;2022-10-31T11:41:35;0.52;;;0.22;;
75071;SDS011;63651;55.728;38.022;2022-10-31T11:51:39;0.95;;;0.40;;
75071;SDS011;63651;55.728;38.022;2022-10-31T11:56:40;0.98;;;0.40;;
75071;SDS011;63651;55.728;38.022;2022-10-31T12:01:45;0.60;;;0.30;;
75071;SDS011;63651;55.728;38.022;2022-10-31T12:06:46;0.80;;;0.20;;
75071;SDS011;63651;55.728;38.022;2022-10-31T12:12:04;0.70;;;0.30;;
75071;SDS011;63651;55.728;38.022;2022-10-31T12:17:17;0.43;;;0.20;;
75071;SDS011;63651;55.728;38.022;2022-10-31T12:22:23;0.80;;;0.22;;
75071;SDS011;63651;55.728;38.022;2022-10-31T12:32:29;0.40;;;0.10;;
75071;SDS011;63651;55.728;38.022;2022-10-31T12:43:00;1.33;;;0.28;;
75071;SDS011;63651;55.728;38.022;2022-10-31T12:53:27;1.25;;;0.32;;
75071;SDS011;63651;55.728;38.022;2022-10-31T12:58:41;0.88;;;0.30;;
75071;SDS011;63651;55.728;38.022;2022-10-31T13:13:53;0.98;;;0.30;;
75071;SDS011;63651;55.728;38.022;2022-10-31T13:23:58;2.13;;;0.40;;
75071;SDS011;63651;55.728;38.022;2022-10-31T13:29:10;1.02;;;0.30;;
75071;SDS011;63651;55.728;38.022;2022-10-31T13:39:30;0.70;;;0.30;;
75071;SDS011;63651;55.728;38.022;2022-10-31T13:44:32;1.77;;;0.28;;
75071;SDS011;63651;55.728;38.022;2022-10-31T13:49:37;0.75;;;0.20;;
75071;SDS011;63651;55.728;38.022;2022-10-31T13:54:39;0.50;;;0.20;;
75071;SDS011;63651;55.728;38.022;2022-10-31T13:59:45;0.60;;;0.52;;
75071;SDS011;63651;55.728;38.022;2022-10-31T14:04:50;0.55;;;0.30;;
75071;SDS011;63651;55.728;38.022;2022-10-31T14:15:02;1.00;;;0.20;;
75071;SDS011;63651;55.728;38.022;2022-10-31T14:30:29;0.90;;;0.20;;
75071;SDS011;63651;55.728;38.022;2022-10-31T14:35:53;0.65;;;0.20;;
75071;SDS011;63651;55.728;38.022;2022-10-31T14:51:14;1.00;;;0.20;;
75071;SDS011;63651;55.728;38.022;2022-10-31T14:56:21;0.85;;;0.30;;
75071;SDS011;63651;55.728;38.022;2022-10-31T15:01:30;0.32;;;0.10;;
75071;SDS011;63651;55.728;38.022;2022-10-31T15:06:37;1.08;;;0.30;;
75071;SDS011;63651;55.728;38.022;2022-10-31T15:11:40;0.98;;;0.20;;
75071;SDS011;63651;55.728;38.022;2022-10-31T15:16:41;0.25;;;0.10;;
75071;SDS011;63651;55.728;38.022;2022-10-31T15:21:43;0.38;;;0.10;;
75071;SDS011;63651;55.728;38.022;2022-10-31T15:26:48;0.50;;;0.20;;
75071;SDS011;63651;55.728;38.022;2022-10-31T15:31:54;0.70;;;0.20;;
75071;SDS011;63651;55.728;38.022;2022-10-31T15:36:55;0.40;;;0.10;;
75071;SDS011;63651;55.728;38.022;2022-10-31T15:41:56;0.80;;;0.22;;
75071;SDS011;63651;55.728;38.022;2022-10-31T15:46:58;0.30;;;0.10;;
75071;SDS011;63651;55.728;38.022;2022-10-31T15:52:14;0.68;;;0.30;;
75071;SDS011;63651;55.728;38.022;2022-10-31T15:57:16;0.60;;;0.17;;
75071;SDS011;63651;55.728;38.022;2022-10-31T16:02:21;0.47;;;0.20;;
75071;SDS011;63651;55.728;38.022;2022-10-31T16:07:22;1.27;;;0.20;;
75071;SDS011;63651;55.728;38.022;2022-10-31T16:12:23;0.50;;;0.28;;
75071;SDS011;63651;55.728;38.022;2022-10-31T16:17:25;0.55;;;0.20;;
75071;SDS011;63651;55.728;38.022;2022-10-31T16:22:27;0.75;;;0.25;;
75071;SDS011;63651;55.728;38.022;2022-10-31T16:27:30;0.55;;;0.20;;
75071;SDS011;63651;55.728;38.022;2022-10-31T16:37:32;1.25;;;0.40;;
75071;SDS011;63651;55.728;38.022;2022-10-31T16:42:32;0.80;;;0.20;;
75071;SDS011;63651;55.728;38.022;2022-10-31T16:47:33;1.50;;;0.25;;
75071;SDS011;63651;55.728;38.022;2022-10-31T16:52:34;1.45;;;0.30;;
75071;SDS011;63651;55.728;38.022;2022-10-31T16:57:34;0.82;;;0.60;;
75071;SDS011;63651;55.728;38.022;2022-10-31T17:02:35;1.92;;;0.30;;
75071;SDS011;63651;55.728;38.022;2022-10-31T17:07:36;5.78;;;3.30;;
75071;SDS011;63651;55.728;38.022;2022-10-31T17:12:37;5.60;;;3.22;;
75071;SDS011;63651;55.728;38.022;2022-10-31T17:17:38;3.03;;;1.90;;
75071;SDS011;63651;55.728;38.022;2022-10-31T17:22:39;1.83;;;1.05;;
75071;SDS011;63651;55.728;38.022;2022-10-31T17:27:40;1.60;;;0.80;;
75071;SDS011;63651;55.728;38.022;2022-10-31T17:32:41;1.50;;;0.55;;
75071;SDS011;63651;55.728;38.022;2022-10-31T17:37:42;1.30;;;0.60;;
75071;SDS011;63651;55.728;38.022;2022-10-31T17:42:53;1.27;;;0.45;;
75071;SDS011;63651;55.728;38.022;2022-10-31T17:47:54;0.80;;;0.43;;
75071;SDS011;63651;55.728;38.022;2022-10-31T17:52:56;0.60;;;0.28;;
75071;SDS011;63651;55.728;38.022;2022-10-31T17:57:57;5.53;;;3.17;;
75071;SDS011;63651;55.728;38.022;2022-10-31T18:02:57;5.43;;;3.15;;
75071;SDS011;63651;55.728;38.022;2022-10-31T18:07:58;4.00;;;2.30;;
75071;SDS011;63651;55.728;38.022;2022-10-31T18:12:59;2.97;;;1.55;;
75071;SDS011;63651;55.728;38.022;2022-10-31T18:18:00;2.38;;;0.90;;
75071;SDS011;63651;55.728;38.022;2022-10-31T18:23:01;1.80;;;0.60;;
75071;SDS011;63651;55.728;38.022;2022-10-31T18:28:01;1.10;;;0.50;;
75071;SDS011;63651;55.728;38.022;2022-10-31T18:33:02;1.10;;;0.30;;
75071;SDS011;63651;55.728;38.022;2022-10-31T18:38:03;0.70;;;0.30;;
75071;SDS011;63651;55.728;38.022;2022-10-31T18:43:05;8.48;;;5.45;;
75071;SDS011;63651;55.728;38.022;2022-10-31T18:48:05;9.02;;;6.22;;
75071;SDS011;63651;55.728;38.022;2022-10-31T18:53:07;4.85;;;2.80;;
75071;SDS011;63651;55.728;38.022;2022-10-31T18:58:07;2.78;;;1.85;;
75071;SDS011;63651;55.728;38.022;2022-10-31T19:03:08;2.65;;;1.05;;
75071;SDS011;63651;55.728;38.022;2022-10-31T19:08:09;1.85;;;0.80;;
75071;SDS011;63651;55.728;38.022;2022-10-31T19:13:10;1.08;;;0.57;;
75071;SDS011;63651;55.728;38.022;2022-10-31T19:18:10;1.13;;;0.50;;
75071;SDS011;63651;55.728;38.022;2022-10-31T19:23:11;1.15;;;0.60;;
75071;SDS011;63651;55.728;38.022;2022-10-31T19:28:12;0.77;;;0.32;;
75071;SDS011;63651;55.728;38.022;2022-10-31T19:33:12;4.85;;;0.43;;
75071;SDS011;63651;55.728;38.022;2022-10-31T19:38:16;2.28;;;0.60;;
75071;SDS011;63651;55.728;38.022;2022-10-31T19:43:17;2.33;;;0.28;;
75071;SDS011;63651;55.728;38.022;2022-10-31T19:48:17;0.90;;;0.30;;
75071;SDS011;63651;55.728;38.022;2022-10-31T19:53:19;1.08;;;0.40;;
75071;SDS011;63651;55.728;38.022;2022-10-31T19:58:20;2.22;;;0.70;;
75071;SDS011;63651;55.728;38.022;2022-10-31T20:03:20;8.05;;;5.20;;
75071;SDS011;63651;55.728;38.022;2022-10-31T20:08:21;7.55;;;4.75;;
75071;SDS011;63651;55.728;38.022;2022-10-31T20:13:23;5.40;;;3.33;;
75071;SDS011;63651;55.728;38.022;2022-10-31T20:18:23;3.10;;;1.52;;
75071;SDS011;63651;55.728;38.022;2022-10-31T20:23:25;2.80;;;1.48;;
75071;SDS011;63651;55.728;38.022;2022-10-31T20:28:26;1.92;;;1.17;;
75071;SDS011;63651;55.728;38.022;2022-10-31T20:33:27;2.08;;;0.60;;
75071;SDS011;63651;55.728;38.022;2022-10-31T20:38:27;1.10;;;0.50;;
75071;SDS011;63651;55.728;38.022;2022-10-31T20:43:29;0.98;;;0.30;;
75071;SDS011;63651;55.728;38.022;2022-10-31T20:48:29;1.42;;;0.30;;
75071;SDS011;63651;55.728;38.022;2022-10-31T20:53:30;0.43;;;0.20;;
75071;SDS011;63651;55.728;38.022;2022-10-31T20:58:31;0.30;;;0.10;;
75071;SDS011;63651;55.728;38.022;2022-10-31T21:03:32;0.55;;;0.20;;
75071;SDS011;63651;55.728;38.022;2022-10-31T21:08:36;0.50;;;0.20;;
75071;SDS011;63651;55.728;38.022;2022-10-31T21:13:37;0.60;;;0.17;;
75071;SDS011;63651;55.728;38.022;2022-10-31T21:18:39;0.43;;;0.13;;
75071;SDS011;63651;55.728;38.022;2022-10-31T21:23:40;1.15;;;0.10;;
75071;SDS011;63651;55.728;38.022;2022-10-31T21:28:42;0.47;;;0.22;;
75071;SDS011;63651;55.728;38.022;2022-10-31T21:33:43;1.42;;;0.13;;
75071;SDS011;63651;55.728;38.022;2022-10-31T21:38:47;1.00;;;0.10;;
75071;SDS011;63651;55.728;38.022;2022-10-31T21:43:49;0.80;;;0.20;;
75071;SDS011;63651;55.728;38.022;2022-10-31T21:48:50;0.82;;;0.17;;
75071;SDS011;63651;55.728;38.022;2022-10-31T21:53:51;0.38;;;0.10;;
75071;SDS011;63651;55.728;38.022;2022-10-31T21:59:10;0.50;;;0.17;;
75071;SDS011;63651;55.728;38.022;2022-10-31T22:04:11;0.55;;;0.10;;
75071;SDS011;63651;55.728;38.022;2022-10-31T22:09:12;0.80;;;0.10;;
75071;SDS011;63651;55.728;38.022;2022-10-31T22:14:13;0.77;;;0.10;;
75071;SDS011;63651;55.728;38.022;2022-10-31T22:19:14;1.42;;;0.40;;
75071;SDS011;63651;55.728;38.022;2022-10-31T22:24:15;0.32;;;0.15;;
75071;SDS011;63651;55.728;38.022;2022-10-31T22:29:17;0.75;;;0.10;;
75071;SDS011;63651;55.728;38.022;2022-10-31T22:34:18;0.32;;;0.13;;
75071;SDS011;63651;55.728;38.022;2022-10-31T22:39:18;0.30;;;0.15;;
75071;SDS011;63651;55.728;38.022;2022-10-31T22:44:20;0.20;;;0.08;;
75071;SDS011;63651;55.728;38.022;2022-10-31T22:49:21;0.28;;;0.08;;
75071;SDS011;63651;55.728;38.022;2022-10-31T22:54:21;0.75;;;0.20;;
75071;SDS011;63651;55.728;38.022;2022-10-31T22:59:22;0.55;;;0.20;;
75071;SDS011;63651;55.728;38.022;2022-10-31T23:04:23;0.95;;;0.17;;
75071;SDS011;63651;55.728;38.022;2022-10-31T23:09:23;0.30;;;0.10;;
75071;SDS011;63651;55.728;38.022;2022-10-31T23:14:24;0.40;;;0.10;;
75071;SDS011;63651;55.728;38.022;2022-10-31T23:19:26;0.50;;;0.10;;
75071;SDS011;63651;55.728;38.022;2022-10-31T23:24:34;0.35;;;0.10;;
75071;SDS011;63651;55.728;38.022;2022-10-31T23:29:40;0.50;;;0.10;;
75071;SDS011;63651;55.728;38.022;2022-10-31T23:34:40;0.20;;;0.00;;
75071;SDS011;63651;55.728;38.022;2022-10-31T23:39:41;0.40;;;0.08;;
75071;SDS011;63651;55.728;38.022;2022-10-31T23:44:42;0.20;;;0.00;;
75071;SDS011;63651;55.728;38.022;2022-10-31T23:49:43;0.38;;;0.10;;
75071;SDS011;63651;55.728;38.022;2022-10-31T23:54:43;1.58;;;0.10;;
75071;SDS011;63651;55.728;38.022;2022-10-31T23:59:44;0.35;;;0.10;;
